createdAt,value
2016-05-17T00:00:35.765Z,14.33
2016-05-17T00:01:35.940Z,14.36
2016-05-17T00:02:35.803Z,14.37
2016-05-17T00:03:35.992Z,14.33
2016-05-17T00:04:35.855Z,14.29
2016-05-17T00:05:36.028Z,14.35
2016-05-17T00:06:36.235Z,14.35
2016-05-17T00:07:35.925Z,14.35
2016-05-17T00:08:35.927Z,14.36
2016-05-17T00:09:35.961Z,14.28
2016-05-17T00:10:36.136Z,14.28
2016-05-17T00:11:36.014Z,14.26
2016-05-17T00:12:35.861Z,14.3
2016-05-17T00:13:36.222Z,14.3
2016-05-17T00:14:36.225Z,14.25
2016-05-17T00:15:36.259Z,14.23
2016-05-17T00:16:36.277Z,14.23
2016-05-17T00:17:36.140Z,14.25
2016-05-17T00:18:36.329Z,14.26
2016-05-17T00:19:36.333Z,14.28
2016-05-17T00:20:36.366Z,14.22
2016-05-17T00:21:36.494Z,14.2
2016-05-17T00:22:36.419Z,14.22
2016-05-17T00:23:36.421Z,14.23
2016-05-17T00:24:36.440Z,14.2
2016-05-17T00:25:36.473Z,14.15
2016-05-17T00:26:36.492Z,14.2
2016-05-17T00:27:36.510Z,14.15
2016-05-17T00:28:36.529Z,14.17
2016-05-17T00:29:36.390Z,14.15
2016-05-17T00:30:36.581Z,14.12
2016-05-17T00:31:36.598Z,14.15
2016-05-17T00:32:36.618Z,14.15
2016-05-17T00:33:36.479Z,14.18
2016-05-17T00:34:36.497Z,14.22
2016-05-17T00:35:36.672Z,14.15
2016-05-17T00:36:36.706Z,14.15
2016-05-17T00:37:36.725Z,14.14
2016-05-17T00:38:36.759Z,14.15
2016-05-17T00:39:36.761Z,14.2
2016-05-17T00:40:36.780Z,14.2
2016-05-17T00:41:36.813Z,14.14
2016-05-17T00:42:36.832Z,14.17
2016-05-17T00:43:36.850Z,14.07
2016-05-17T00:44:37.088Z,14.07
2016-05-17T00:45:36.887Z,14.11
2016-05-17T00:46:36.921Z,14.04
2016-05-17T00:47:36.939Z,14.11
2016-05-17T00:48:36.958Z,14.07
2016-05-17T00:49:36.991Z,14.04
2016-05-17T00:50:37.009Z,14.04
2016-05-17T00:51:37.168Z,14.03
2016-05-17T00:52:36.890Z,13.97
2016-05-17T00:53:36.908Z,14.11
2016-05-17T00:54:36.942Z,14.04
2016-05-17T00:55:37.117Z,13.96
2016-05-17T00:56:36.979Z,13.95
2016-05-17T00:57:37.153Z,13.95
2016-05-17T00:58:37.187Z,13.93
2016-05-17T00:59:37.034Z,13.93
2016-05-17T01:00:37.224Z,13.95
2016-05-17T01:01:37.243Z,13.93
2016-05-17T01:02:37.104Z,13.92
2016-05-17T01:03:37.279Z,13.99
2016-05-17T01:04:37.156Z,13.92
2016-05-17T01:05:37.331Z,13.9
2016-05-17T01:06:37.286Z,13.89
2016-05-17T01:07:37.368Z,13.92
2016-05-17T01:08:37.386Z,13.9
2016-05-17T01:09:37.248Z,13.97
2016-05-17T01:10:37.439Z,13.92
2016-05-17T01:11:37.316Z,13.85
2016-05-17T01:12:37.475Z,13.87
2016-05-17T01:13:37.494Z,13.85
2016-05-17T01:14:37.371Z,13.85
2016-05-17T01:15:37.546Z,13.92
2016-05-17T01:16:37.564Z,13.81
2016-05-17T01:17:37.583Z,13.78
2016-05-17T01:18:37.600Z,13.78
2016-05-17T01:19:37.463Z,13.78
2016-05-17T01:20:37.497Z,13.79
2016-05-17T01:21:37.530Z,13.79
2016-05-17T01:22:37.690Z,13.77
2016-05-17T01:23:37.707Z,13.79
2016-05-17T01:24:37.773Z,13.79
2016-05-17T01:25:37.760Z,13.81
2016-05-17T01:26:37.779Z,13.78
2016-05-17T01:27:37.796Z,13.77
2016-05-17T01:28:37.815Z,13.74
2016-05-17T01:29:37.833Z,13.77
2016-05-17T01:30:37.851Z,13.81
2016-05-17T01:31:37.870Z,13.78
2016-05-17T01:32:37.903Z,13.75
2016-05-17T01:33:37.938Z,13.74
2016-05-17T01:34:37.940Z,13.75
2016-05-17T01:35:37.959Z,13.68
2016-05-17T01:36:38.009Z,13.67
2016-05-17T01:37:38.011Z,13.75
2016-05-17T01:38:38.029Z,13.75
2016-05-17T01:39:38.047Z,13.74
2016-05-17T01:40:38.081Z,13.74
2016-05-17T01:41:38.100Z,13.72
2016-05-17T01:42:37.947Z,13.67
2016-05-17T01:43:38.136Z,13.68
2016-05-17T01:44:38.155Z,13.74
2016-05-17T01:45:38.172Z,13.72
2016-05-17T01:46:38.191Z,13.62
2016-05-17T01:47:38.225Z,13.68
2016-05-17T01:48:38.243Z,13.68
2016-05-17T01:49:38.263Z,13.63
2016-05-17T01:50:38.296Z,13.68
2016-05-17T01:51:38.314Z,13.6
2016-05-17T01:52:38.333Z,13.67
2016-05-17T01:53:38.398Z,13.65
2016-05-17T01:54:38.369Z,13.65
2016-05-17T01:55:38.387Z,13.63
2016-05-17T01:56:38.421Z,13.65
2016-05-17T01:57:38.440Z,13.56
2016-05-17T01:58:38.458Z,13.59
2016-05-17T01:59:38.476Z,13.56
2016-05-17T02:00:38.495Z,13.6
2016-05-17T02:01:38.373Z,13.53
2016-05-17T02:02:38.390Z,13.57
2016-05-17T02:03:38.581Z,13.56
2016-05-17T02:04:38.583Z,13.54
2016-05-17T02:05:38.462Z,13.49
2016-05-17T02:06:38.651Z,13.57
2016-05-17T02:07:38.654Z,13.53
2016-05-17T02:08:38.673Z,13.35
2016-05-17T02:09:38.691Z,13.47
2016-05-17T02:10:38.709Z,13.46
2016-05-17T02:11:38.728Z,13.47
2016-05-17T02:12:38.761Z,13.49
2016-05-17T02:13:38.780Z,13.46
2016-05-17T02:14:38.798Z,13.39
2016-05-17T02:15:38.660Z,13.3
2016-05-17T02:16:38.835Z,13.35
2016-05-17T02:17:38.853Z,13.37
2016-05-17T02:18:38.871Z,13.38
2016-05-17T02:19:38.750Z,13.35
2016-05-17T02:20:38.923Z,13.38
2016-05-17T02:21:38.957Z,13.3
2016-05-17T02:22:38.960Z,13.28
2016-05-17T02:23:39.025Z,13.33
2016-05-17T02:24:39.013Z,13.35
2016-05-17T02:25:38.874Z,13.22
2016-05-17T02:26:39.049Z,13.22
2016-05-17T02:27:39.208Z,13.2
2016-05-17T02:28:39.085Z,13.25
2016-05-17T02:29:39.120Z,13.2
2016-05-17T02:30:39.138Z,13.22
2016-05-17T02:31:39.172Z,13.2
2016-05-17T02:32:39.018Z,13.23
2016-05-17T02:33:39.052Z,13.2
2016-05-17T02:34:39.148Z,13.18
2016-05-17T02:35:39.136Z,13.22
2016-05-17T02:36:39.763Z,13.22
2016-05-17T02:37:39.282Z,13.16
2016-05-17T02:38:39.284Z,13.19
2016-05-17T02:39:39.412Z,13.15
2016-05-17T02:40:39.040Z,13.18
2016-05-17T02:41:39.120Z,13.19
2016-05-17T02:42:39.373Z,13.16
2016-05-17T02:43:39.407Z,13.19
2016-05-17T02:44:39.425Z,13.15
2016-05-17T02:45:39.444Z,13.16
2016-05-17T02:46:39.462Z,13.16
2016-05-17T02:47:39.481Z,13.04
2016-05-17T02:48:39.514Z,13.08
2016-05-17T02:49:39.532Z,13.22
2016-05-17T02:50:39.394Z,13.09
2016-05-17T02:51:39.961Z,13.09
2016-05-17T02:52:39.603Z,13.13
2016-05-17T02:53:39.450Z,13.03
2016-05-17T02:54:39.624Z,13.03
2016-05-17T02:55:39.502Z,13.03
2016-05-17T02:56:39.724Z,13.01
2016-05-17T02:57:39.695Z,13.03
2016-05-17T02:58:39.713Z,13.01
2016-05-17T02:59:39.732Z,13.03
2016-05-17T03:00:39.766Z,13.04
2016-05-17T03:01:39.784Z,13.04
2016-05-17T03:02:39.646Z,13.09
2016-05-17T03:03:39.820Z,13.12
2016-05-17T03:04:39.854Z,13.05
2016-05-17T03:05:39.873Z,13.13
2016-05-17T03:06:39.875Z,13.04
2016-05-17T03:07:39.909Z,13.03
2016-05-17T03:08:39.771Z,13.03
2016-05-17T03:09:39.945Z,13.09
2016-05-17T03:10:39.964Z,13.15
2016-05-17T03:11:39.983Z,13.09
2016-05-17T03:12:40.017Z,13.03
2016-05-17T03:13:40.034Z,13.03
2016-05-17T03:14:40.053Z,13.15
2016-05-17T03:15:39.914Z,13.16
2016-05-17T03:16:39.934Z,13
2016-05-17T03:17:40.108Z,13.03
2016-05-17T03:18:40.142Z,13.05
2016-05-17T03:19:40.208Z,13.03
2016-05-17T03:20:40.022Z,13.18
2016-05-17T03:21:40.321Z,13.18
2016-05-17T03:22:40.215Z,13.04
2016-05-17T03:23:40.233Z,13.04
2016-05-17T03:24:40.393Z,13.04
2016-05-17T03:25:40.285Z,13.18
2016-05-17T03:26:40.304Z,13.01
2016-05-17T03:27:40.322Z,13.16
2016-05-17T03:28:40.341Z,13.18
2016-05-17T03:29:40.515Z,13.08
2016-05-17T03:30:40.377Z,13.15
2016-05-17T03:31:40.395Z,13.08
2016-05-17T03:32:40.493Z,13.12
2016-05-17T03:33:40.277Z,13.04
2016-05-17T03:34:40.466Z,13.04
2016-05-17T03:35:40.329Z,13.09
2016-05-17T03:36:40.378Z,13.15
2016-05-17T03:37:40.521Z,13.08
2016-05-17T03:38:40.539Z,13.08
2016-05-17T03:39:40.402Z,13.15
2016-05-17T03:40:40.607Z,13.15
2016-05-17T03:41:40.610Z,13.19
2016-05-17T03:42:40.628Z,13.13
2016-05-17T03:43:40.662Z,13.12
2016-05-17T03:44:40.681Z,13.11
2016-05-17T03:45:40.699Z,13.19
2016-05-17T03:46:40.717Z,13.15
2016-05-17T03:47:40.735Z,13.16
2016-05-17T03:48:40.770Z,13.09
2016-05-17T03:49:40.772Z,13.19
2016-05-17T03:50:40.805Z,13.12
2016-05-17T03:51:40.841Z,13.12
2016-05-17T03:52:40.827Z,13.13
2016-05-17T03:53:40.705Z,13.13
2016-05-17T03:54:40.879Z,13.18
2016-05-17T03:55:40.897Z,13.15
2016-05-17T03:56:40.916Z,13.15
2016-05-17T03:57:40.950Z,13.22
2016-05-17T03:58:40.952Z,13.18
2016-05-17T03:59:40.987Z,13.13
2016-05-17T04:00:41.005Z,13.15
2016-05-17T04:01:41.023Z,13.18
2016-05-17T04:02:41.041Z,13.2
2016-05-17T04:03:41.059Z,13.15
2016-05-17T04:04:41.079Z,13.16
2016-05-17T04:05:40.972Z,13.18
2016-05-17T04:06:40.974Z,13.16
2016-05-17T04:07:40.993Z,13.16
2016-05-17T04:08:41.167Z,13.19
2016-05-17T04:09:41.185Z,13.19
2016-05-17T04:10:41.219Z,13.16
2016-05-17T04:11:41.222Z,13.16
2016-05-17T04:12:40.943Z,13.18
2016-05-17T04:13:41.275Z,13.15
2016-05-17T04:14:41.292Z,13.13
2016-05-17T04:15:41.311Z,13.16
2016-05-17T04:16:41.189Z,13.19
2016-05-17T04:17:41.347Z,13.12
2016-05-17T04:18:41.381Z,13.19
2016-05-17T04:19:41.383Z,13.18
2016-05-17T04:20:41.434Z,13.19
2016-05-17T04:21:41.297Z,13.15
2016-05-17T04:22:41.486Z,13.11
2016-05-17T04:23:41.489Z,13.16
2016-05-17T04:24:41.491Z,13.19
2016-05-17T04:25:41.369Z,13.19
2016-05-17T04:26:41.543Z,13.15
2016-05-17T04:27:41.562Z,13.16
2016-05-17T04:28:41.424Z,13.13
2016-05-17T04:29:41.614Z,13.25
2016-05-17T04:30:41.632Z,13.12
2016-05-17T04:31:41.635Z,13.16
2016-05-17T04:32:41.669Z,13.25
2016-05-17T04:33:41.687Z,13.19
2016-05-17T04:34:41.706Z,13.2
2016-05-17T04:35:41.723Z,13.2
2016-05-17T04:36:41.837Z,13.2
2016-05-17T04:37:41.777Z,13.22
2016-05-17T04:38:41.638Z,13.19
2016-05-17T04:39:41.813Z,13.2
2016-05-17T04:40:41.831Z,13.18
2016-05-17T04:41:41.693Z,13.2
2016-05-17T04:42:41.867Z,13.16
2016-05-17T04:43:41.886Z,13.18
2016-05-17T04:44:41.920Z,13.33
2016-05-17T04:45:41.939Z,13.25
2016-05-17T04:46:41.973Z,13.18
2016-05-17T04:47:41.834Z,13.23
2016-05-17T04:48:41.994Z,13.3
2016-05-17T04:49:42.027Z,13.25
2016-05-17T04:50:41.874Z,13.33
2016-05-17T04:51:42.579Z,13.27
2016-05-17T04:52:42.083Z,13.33
2016-05-17T04:53:41.945Z,13.35
2016-05-17T04:54:41.963Z,13.35
2016-05-17T04:55:42.138Z,13.38
2016-05-17T04:56:42.171Z,13.35
2016-05-17T04:57:42.189Z,13.37
2016-05-17T04:58:42.317Z,13.33
2016-05-17T04:59:42.226Z,13.3
2016-05-17T05:00:42.088Z,13.37
2016-05-17T05:01:42.107Z,13.35
2016-05-17T05:02:42.125Z,13.37
2016-05-17T05:03:42.159Z,13.37
2016-05-17T05:04:42.318Z,13.37
2016-05-17T05:05:42.351Z,13.38
2016-05-17T05:06:42.807Z,13.31
2016-05-17T05:07:42.231Z,13.31
2016-05-17T05:08:42.265Z,13.37
2016-05-17T05:09:42.540Z,13.3
2016-05-17T05:10:42.523Z,13.35
2016-05-17T05:11:42.600Z,13.42
2016-05-17T05:12:42.645Z,13.38
2016-05-17T05:13:42.550Z,13.41
2016-05-17T05:14:42.770Z,13.46
2016-05-17T05:15:42.804Z,13.5
2016-05-17T05:16:42.823Z,13.46
2016-05-17T05:17:42.886Z,13.5
2016-05-17T05:18:42.749Z,13.5
2016-05-17T05:19:42.934Z,13.5
2016-05-17T05:20:42.661Z,13.53
2016-05-17T05:21:42.981Z,13.63
2016-05-17T05:22:42.864Z,13.52
2016-05-17T05:23:42.887Z,13.6
2016-05-17T05:24:43.066Z,13.56
2016-05-17T05:25:43.102Z,13.53
2016-05-17T05:26:43.107Z,13.59
2016-05-17T05:27:43.127Z,13.62
2016-05-17T05:28:43.147Z,13.62
2016-05-17T05:29:43.042Z,13.62
2016-05-17T05:30:42.889Z,13.7
2016-05-17T05:31:43.235Z,13.6
2016-05-17T05:32:43.302Z,13.63
2016-05-17T05:33:43.259Z,13.7
2016-05-17T05:34:43.292Z,13.72
2016-05-17T05:35:43.156Z,13.71
2016-05-17T05:36:43.174Z,13.65
2016-05-17T05:37:43.193Z,13.68
2016-05-17T05:38:43.383Z,13.79
2016-05-17T05:39:43.386Z,13.77
2016-05-17T05:40:43.404Z,13.74
2016-05-17T05:41:43.282Z,13.77
2016-05-17T05:42:43.301Z,13.83
2016-05-17T05:43:43.476Z,13.77
2016-05-17T05:44:43.509Z,13.83
2016-05-17T05:45:43.512Z,13.83
2016-05-17T05:46:43.546Z,13.78
2016-05-17T05:47:43.407Z,13.79
2016-05-17T05:48:43.583Z,13.77
2016-05-17T05:49:43.459Z,13.77
2016-05-17T05:50:43.494Z,13.9
2016-05-17T05:51:43.653Z,13.85
2016-05-17T05:52:43.359Z,13.83
2016-05-17T05:53:43.690Z,13.9
2016-05-17T05:54:43.709Z,13.89
2016-05-17T05:55:43.742Z,13.9
2016-05-17T05:56:43.745Z,13.96
2016-05-17T05:57:43.764Z,13.93
2016-05-17T05:58:43.484Z,13.93
2016-05-17T05:59:43.659Z,13.92
2016-05-17T06:00:43.834Z,13.87
2016-05-17T06:01:43.711Z,13.97
2016-05-17T06:02:43.870Z,13.95
2016-05-17T06:03:43.748Z,13.97
2016-05-17T06:04:43.766Z,13.93
2016-05-17T06:05:43.941Z,13.97
2016-05-17T06:06:43.974Z,13.99
2016-05-17T06:07:43.977Z,14.04
2016-05-17T06:08:43.996Z,14.03
2016-05-17T06:09:43.858Z,14.04
2016-05-17T06:10:44.048Z,14.11
2016-05-17T06:11:44.066Z,14.11
2016-05-17T06:12:44.084Z,14.05
2016-05-17T06:13:44.102Z,14.14
2016-05-17T06:14:43.980Z,14.12
2016-05-17T06:15:44.233Z,14.15
2016-05-17T06:16:44.173Z,14.12
2016-05-17T06:17:44.035Z,14.14
2016-05-17T06:18:44.210Z,14.18
2016-05-17T06:19:44.228Z,14.12
2016-05-17T06:20:44.857Z,14.12
2016-05-17T06:21:44.499Z,14.23
2016-05-17T06:22:44.298Z,14.17
2016-05-17T06:23:44.333Z,14.14
2016-05-17T06:24:44.476Z,14.18
2016-05-17T06:25:44.198Z,14.15
2016-05-17T06:26:44.388Z,14.23
2016-05-17T06:27:44.407Z,14.15
2016-05-17T06:28:44.439Z,14.15
2016-05-17T06:29:44.443Z,14.26
2016-05-17T06:30:44.320Z,14.23
2016-05-17T06:31:44.495Z,14.2
2016-05-17T06:32:44.498Z,14.23
2016-05-17T06:33:44.532Z,14.2
2016-05-17T06:34:44.566Z,14.26
2016-05-17T06:35:44.412Z,14.22
2016-05-17T06:36:44.619Z,14.23
2016-05-17T06:37:44.621Z,14.17
2016-05-17T06:38:44.717Z,14.25
2016-05-17T06:39:44.657Z,14.3
2016-05-17T06:40:44.691Z,14.29
2016-05-17T06:41:44.694Z,14.26
2016-05-17T06:42:44.713Z,14.28
2016-05-17T06:43:44.730Z,14.33
2016-05-17T06:44:44.608Z,14.33
2016-05-17T06:45:44.627Z,14.3
2016-05-17T06:46:44.801Z,14.4
2016-05-17T06:47:44.819Z,14.43
2016-05-17T06:48:44.696Z,14.48
2016-05-17T06:49:44.871Z,14.4
2016-05-17T06:50:44.890Z,14.44
2016-05-17T06:51:45.565Z,14.54
2016-05-17T06:52:44.786Z,14.5
2016-05-17T06:53:44.789Z,14.5
2016-05-17T06:54:44.823Z,14.51
2016-05-17T06:55:44.840Z,14.5
2016-05-17T06:56:45.015Z,14.45
2016-05-17T06:57:45.033Z,14.5
2016-05-17T06:58:45.053Z,14.5
2016-05-17T06:59:45.086Z,14.51
2016-05-17T07:00:45.167Z,14.68
2016-05-17T07:01:45.122Z,14.62
2016-05-17T07:02:45.250Z,14.66
2016-05-17T07:03:45.175Z,14.59
2016-05-17T07:04:45.193Z,14.65
2016-05-17T07:05:45.211Z,14.59
2016-05-17T07:06:45.089Z,14.65
2016-05-17T07:07:45.264Z,14.62
2016-05-17T07:08:45.282Z,14.66
2016-05-17T07:09:45.300Z,14.66
2016-05-17T07:10:45.334Z,14.78
2016-05-17T07:11:45.337Z,14.78
2016-05-17T07:12:45.371Z,14.63
2016-05-17T07:13:45.374Z,14.72
2016-05-17T07:14:45.407Z,14.79
2016-05-17T07:15:45.441Z,14.79
2016-05-17T07:16:45.444Z,14.79
2016-05-17T07:17:45.479Z,14.78
2016-05-17T07:18:45.496Z,14.79
2016-05-17T07:19:45.515Z,14.72
2016-05-17T07:20:45.376Z,14.73
2016-05-17T07:21:46.035Z,14.73
2016-05-17T07:22:45.679Z,14.69
2016-05-17T07:23:45.697Z,14.73
2016-05-17T07:24:45.607Z,14.77
2016-05-17T07:25:45.640Z,14.63
2016-05-17T07:26:45.674Z,14.63
2016-05-17T07:27:45.677Z,14.78
2016-05-17T07:28:45.711Z,14.7
2016-05-17T07:29:45.745Z,14.77
2016-05-17T07:30:45.747Z,14.77
2016-05-17T07:31:45.609Z,14.84
2016-05-17T07:32:45.644Z,14.79
2016-05-17T07:33:45.662Z,14.81
2016-05-17T07:34:45.852Z,14.84
2016-05-17T07:35:45.698Z,14.86
2016-05-17T07:36:45.983Z,14.91
2016-05-17T07:37:45.750Z,14.97
2016-05-17T07:38:45.925Z,14.92
2016-05-17T07:39:45.788Z,15.04
2016-05-17T07:40:45.993Z,15.03
2016-05-17T07:41:45.980Z,15.02
2016-05-17T07:42:46.092Z,15.04
2016-05-17T07:43:46.048Z,15.06
2016-05-17T07:44:46.051Z,15.14
2016-05-17T07:45:46.068Z,15.18
2016-05-17T07:46:46.197Z,15.22
2016-05-17T07:47:46.122Z,15.22
2016-05-17T07:48:45.983Z,15.21
2016-05-17T07:49:46.174Z,15.15
2016-05-17T07:50:46.176Z,15.22
2016-05-17T07:51:46.210Z,15.17
2016-05-17T07:52:46.244Z,15.31
2016-05-17T07:53:46.262Z,15.28
2016-05-17T07:54:46.109Z,15.33
2016-05-17T07:55:46.142Z,15.36
2016-05-17T07:56:46.162Z,15.42
2016-05-17T07:57:46.336Z,15.36
2016-05-17T07:58:46.464Z,15.4
2016-05-17T07:59:46.388Z,15.46
2016-05-17T08:00:46.406Z,15.46
2016-05-17T08:01:46.425Z,15.51
2016-05-17T08:02:46.287Z,15.52
2016-05-17T08:03:46.477Z,15.59
2016-05-17T08:04:46.495Z,15.62
2016-05-17T08:05:46.622Z,15.68
2016-05-17T08:06:47.173Z,15.7
2016-05-17T08:07:46.675Z,15.68
2016-05-17T08:08:46.927Z,15.7
2016-05-17T08:09:46.650Z,15.68
2016-05-17T08:10:46.636Z,15.73
2016-05-17T08:11:46.655Z,15.75
2016-05-17T08:12:46.673Z,15.77
2016-05-17T08:13:46.691Z,15.77
2016-05-17T08:14:46.725Z,15.82
2016-05-17T08:15:46.790Z,15.84
2016-05-17T08:16:46.840Z,15.72
2016-05-17T08:17:46.796Z,15.84
2016-05-17T08:18:46.642Z,15.84
2016-05-17T08:19:46.832Z,15.84
2016-05-17T08:20:46.851Z,15.88
2016-05-17T08:21:46.868Z,15.88
2016-05-17T08:22:46.904Z,15.86
2016-05-17T08:23:46.937Z,15.94
2016-05-17T08:24:46.955Z,15.88
2016-05-17T08:25:46.989Z,15.94
2016-05-17T08:26:46.992Z,15.86
2016-05-17T08:27:47.010Z,15.91
2016-05-17T08:28:47.122Z,15.9
2016-05-17T08:29:47.047Z,15.94
2016-05-17T08:30:46.925Z,15.9
2016-05-17T08:31:47.099Z,15.91
2016-05-17T08:32:47.117Z,15.92
2016-05-17T08:33:47.167Z,15.91
2016-05-17T08:34:47.170Z,15.97
2016-05-17T08:35:47.032Z,15.91
2016-05-17T08:36:47.612Z,15.91
2016-05-17T08:37:47.240Z,15.97
2016-05-17T08:38:47.275Z,15.98
2016-05-17T08:39:47.277Z,15.92
2016-05-17T08:40:47.155Z,15.86
2016-05-17T08:41:47.330Z,15.92
2016-05-17T08:42:47.035Z,15.95
2016-05-17T08:43:47.366Z,15.91
2016-05-17T08:44:47.243Z,15.91
2016-05-17T08:45:47.418Z,15.86
2016-05-17T08:46:47.436Z,15.76
2016-05-17T08:47:47.549Z,15.8
2016-05-17T08:48:47.535Z,15.8
2016-05-17T08:49:47.679Z,15.82
2016-05-17T08:50:47.368Z,15.76
2016-05-17T08:51:47.402Z,15.7
2016-05-17T08:52:47.562Z,15.75
2016-05-17T08:53:47.596Z,15.75
2016-05-17T08:54:47.302Z,15.7
2016-05-17T08:55:47.476Z,15.72
2016-05-17T08:56:47.651Z,15.65
2016-05-17T08:57:47.685Z,15.62
2016-05-17T08:58:47.703Z,15.67
2016-05-17T08:59:47.565Z,15.58
2016-05-17T09:00:47.756Z,15.55
2016-05-17T09:01:47.617Z,15.54
2016-05-17T09:02:47.807Z,15.57
2016-05-17T09:03:47.653Z,15.54
2016-05-17T09:04:47.828Z,15.57
2016-05-17T09:05:47.862Z,15.58
2016-05-17T09:06:47.896Z,15.57
2016-05-17T09:07:47.899Z,15.55
2016-05-17T09:08:47.933Z,15.57
2016-05-17T09:09:47.795Z,15.55
2016-05-17T09:10:47.986Z,15.52
2016-05-17T09:11:47.988Z,15.64
2016-05-17T09:12:48.006Z,15.62
2016-05-17T09:13:47.883Z,15.62
2016-05-17T09:14:47.903Z,15.67
2016-05-17T09:15:47.921Z,15.67
2016-05-17T09:16:48.111Z,15.68
2016-05-17T09:17:48.129Z,15.8
2016-05-17T09:18:48.147Z,15.82
2016-05-17T09:19:48.165Z,15.88
2016-05-17T09:20:48.199Z,15.86
2016-05-17T09:21:48.296Z,15.95
2016-05-17T09:22:48.080Z,15.97
2016-05-17T09:23:48.271Z,16.05
2016-05-17T09:24:48.132Z,15.98
2016-05-17T09:25:48.307Z,16.05
2016-05-17T09:26:48.201Z,16.1
2016-05-17T09:27:48.359Z,16.12
2016-05-17T09:28:48.221Z,16.12
2016-05-17T09:29:48.412Z,16.15
2016-05-17T09:30:48.257Z,16.1
2016-05-17T09:31:48.448Z,16.17
2016-05-17T09:32:48.482Z,16.15
2016-05-17T09:33:48.501Z,16.21
2016-05-17T09:34:48.503Z,16.21
2016-05-17T09:35:48.381Z,16.2
2016-05-17T09:36:48.821Z,16.23
2016-05-17T09:37:48.698Z,16.28
2016-05-17T09:38:48.608Z,16.39
2016-05-17T09:39:48.626Z,16.33
2016-05-17T09:40:48.644Z,16.41
2016-05-17T09:41:48.662Z,16.36
2016-05-17T09:42:48.712Z,16.38
2016-05-17T09:43:48.558Z,16.38
2016-05-17T09:44:48.749Z,16.49
2016-05-17T09:45:48.766Z,16.49
2016-05-17T09:46:48.785Z,16.51
2016-05-17T09:47:48.819Z,16.51
2016-05-17T09:48:48.837Z,16.46
2016-05-17T09:49:48.699Z,16.39
2016-05-17T09:50:48.874Z,16.41
2016-05-17T09:51:49.174Z,16.38
2016-05-17T09:52:48.927Z,16.33
2016-05-17T09:53:48.945Z,16.38
2016-05-17T09:54:48.821Z,16.31
2016-05-17T09:55:48.841Z,16.29
2016-05-17T09:56:48.875Z,16.24
2016-05-17T09:57:48.877Z,16.29
2016-05-17T09:58:49.068Z,16.15
2016-05-17T09:59:49.085Z,16.17
2016-05-17T10:00:48.792Z,16.09
2016-05-17T10:01:49.123Z,16.12
2016-05-17T10:02:49.156Z,16.05
2016-05-17T10:03:49.175Z,16.1
2016-05-17T10:04:49.193Z,16.08
2016-05-17T10:05:49.211Z,16.05
2016-05-17T10:06:49.183Z,16.02
2016-05-17T10:07:49.264Z,16.08
2016-05-17T10:08:49.298Z,16.08
2016-05-17T10:09:49.316Z,16.02
2016-05-17T10:10:49.350Z,15.98
2016-05-17T10:11:49.211Z,16.02
2016-05-17T10:12:49.246Z,15.97
2016-05-17T10:13:49.420Z,15.91
2016-05-17T10:14:49.423Z,16.01
2016-05-17T10:15:49.286Z,16.01
2016-05-17T10:16:49.475Z,15.95
2016-05-17T10:17:49.509Z,15.92
2016-05-17T10:18:49.512Z,15.94
2016-05-17T10:19:49.530Z,15.91
2016-05-17T10:20:49.564Z,15.94
2016-05-17T10:21:49.599Z,15.73
2016-05-17T10:22:49.616Z,15.75
2016-05-17T10:23:49.619Z,15.83
2016-05-17T10:24:49.652Z,15.83
2016-05-17T10:25:49.672Z,15.88
2016-05-17T10:26:49.690Z,15.79
2016-05-17T10:27:49.707Z,15.73
2016-05-17T10:28:49.743Z,15.79
2016-05-17T10:29:49.776Z,15.72
2016-05-17T10:30:49.778Z,15.72
2016-05-17T10:31:49.829Z,15.72
2016-05-17T10:32:49.831Z,15.75
2016-05-17T10:33:49.865Z,15.72
2016-05-17T10:34:49.712Z,15.72
2016-05-17T10:35:49.917Z,15.67
2016-05-17T10:36:49.950Z,15.77
2016-05-17T10:37:49.954Z,15.7
2016-05-17T10:38:49.972Z,15.72
2016-05-17T10:39:49.834Z,15.75
2016-05-17T10:40:50.009Z,15.77
2016-05-17T10:41:50.059Z,15.73
2016-05-17T10:42:49.983Z,15.68
2016-05-17T10:43:49.939Z,15.65
2016-05-17T10:44:50.098Z,15.73
2016-05-17T10:45:50.147Z,15.72
2016-05-17T10:46:50.259Z,15.72
2016-05-17T10:47:50.169Z,15.68
2016-05-17T10:48:50.046Z,15.62
2016-05-17T10:49:50.220Z,15.64
2016-05-17T10:50:50.255Z,15.7
2016-05-17T10:51:50.570Z,15.62
2016-05-17T10:52:50.275Z,15.76
2016-05-17T10:53:50.153Z,15.8
2016-05-17T10:54:50.327Z,15.82
2016-05-17T10:55:50.440Z,15.76
2016-05-17T10:56:50.380Z,15.75
2016-05-17T10:57:50.241Z,15.75
2016-05-17T10:58:50.494Z,15.72
2016-05-17T10:59:50.279Z,15.68
2016-05-17T11:00:50.313Z,15.76
2016-05-17T11:01:50.502Z,15.72
2016-05-17T11:02:50.505Z,15.65
2016-05-17T11:03:50.382Z,15.7
2016-05-17T11:04:50.557Z,15.67
2016-05-17T11:05:50.576Z,15.59
2016-05-17T11:06:50.297Z,15.65
2016-05-17T11:07:50.628Z,15.65
2016-05-17T11:08:50.662Z,15.62
2016-05-17T11:09:50.681Z,15.65
2016-05-17T11:10:50.776Z,15.7
2016-05-17T11:11:50.561Z,15.64
2016-05-17T11:12:50.828Z,15.72
2016-05-17T11:13:50.753Z,15.75
2016-05-17T11:14:50.616Z,15.77
2016-05-17T11:15:50.789Z,15.79
2016-05-17T11:16:50.824Z,15.79
2016-05-17T11:17:50.842Z,15.8
2016-05-17T11:18:50.720Z,15.84
2016-05-17T11:19:50.895Z,15.86
2016-05-17T11:20:51.008Z,15.82
2016-05-17T11:21:51.274Z,15.76
2016-05-17T11:22:51.058Z,15.83
2016-05-17T11:23:50.969Z,15.86
2016-05-17T11:24:51.018Z,15.9
2016-05-17T11:25:50.864Z,15.97
2016-05-17T11:26:51.055Z,15.88
2016-05-17T11:27:51.072Z,15.95
2016-05-17T11:28:51.091Z,15.88
2016-05-17T11:29:50.968Z,15.88
2016-05-17T11:30:51.252Z,15.92
2016-05-17T11:31:51.240Z,16
2016-05-17T11:32:51.196Z,15.91
2016-05-17T11:33:51.213Z,15.97
2016-05-17T11:34:51.232Z,15.91
2016-05-17T11:35:51.251Z,15.92
2016-05-17T11:36:51.284Z,16
2016-05-17T11:37:51.317Z,15.95
2016-05-17T11:38:51.165Z,15.94
2016-05-17T11:39:51.198Z,15.95
2016-05-17T11:40:51.373Z,15.98
2016-05-17T11:41:51.392Z,15.91
2016-05-17T11:42:51.425Z,15.95
2016-05-17T11:43:51.287Z,15.91
2016-05-17T11:44:51.555Z,15.95
2016-05-17T11:45:51.480Z,15.94
2016-05-17T11:46:51.514Z,15.95
2016-05-17T11:47:51.517Z,15.97
2016-05-17T11:48:51.566Z,15.95
2016-05-17T11:49:51.413Z,15.91
2016-05-17T11:50:51.431Z,15.92
2016-05-17T11:51:51.402Z,15.92
2016-05-17T11:52:51.639Z,15.88
2016-05-17T11:53:51.674Z,15.9
2016-05-17T11:54:51.535Z,15.9
2016-05-17T11:55:51.710Z,15.86
2016-05-17T11:56:51.729Z,15.91
2016-05-17T11:57:51.746Z,15.92
2016-05-17T11:58:51.563Z,15.92
2016-05-17T11:59:51.644Z,15.95
2016-05-17T12:00:51.817Z,15.84
2016-05-17T12:01:51.851Z,15.92
2016-05-17T12:02:51.713Z,15.9
2016-05-17T12:03:51.888Z,15.94
2016-05-17T12:04:52.015Z,15.88
2016-05-17T12:05:51.785Z,15.92
2016-05-17T12:06:51.646Z,15.9
2016-05-17T12:07:51.898Z,16.02
2016-05-17T12:08:52.011Z,16.01
2016-05-17T12:09:52.123Z,15.97
2016-05-17T12:10:52.078Z,16
2016-05-17T12:11:52.081Z,16.01
2016-05-17T12:12:52.100Z,15.92
2016-05-17T12:13:52.025Z,15.92
2016-05-17T12:14:52.136Z,15.92
2016-05-17T12:15:52.155Z,16
2016-05-17T12:16:52.267Z,16
2016-05-17T12:17:52.206Z,15.94
2016-05-17T12:18:52.256Z,16
2016-05-17T12:19:52.244Z,15.92
2016-05-17T12:20:52.137Z,15.95
2016-05-17T12:21:52.546Z,16
2016-05-17T12:22:52.314Z,15.97
2016-05-17T12:23:52.176Z,16.02
2016-05-17T12:24:52.335Z,15.97
2016-05-17T12:25:52.385Z,15.92
2016-05-17T12:26:52.403Z,15.98
2016-05-17T12:27:52.546Z,16.01
2016-05-17T12:28:52.455Z,16.01
2016-05-17T12:29:52.364Z,15.91
2016-05-17T12:30:52.508Z,16.01
2016-05-17T12:31:52.635Z,15.98
2016-05-17T12:32:52.669Z,15.97
2016-05-17T12:33:52.563Z,15.97
2016-05-17T12:34:52.440Z,16.02
2016-05-17T12:35:52.615Z,15.97
2016-05-17T12:36:53.148Z,15.97
2016-05-17T12:37:52.854Z,16.05
2016-05-17T12:38:52.779Z,16.02
2016-05-17T12:39:52.704Z,16.02
2016-05-17T12:40:52.753Z,15.98
2016-05-17T12:41:52.740Z,15.95
2016-05-17T12:42:52.774Z,16.02
2016-05-17T12:43:52.793Z,15.97
2016-05-17T12:44:52.842Z,15.9
2016-05-17T12:45:52.845Z,16
2016-05-17T12:46:52.864Z,15.94
2016-05-17T12:47:52.897Z,15.91
2016-05-17T12:48:52.899Z,15.91
2016-05-17T12:49:52.964Z,15.91
2016-05-17T12:50:52.983Z,15.86
2016-05-17T12:51:53.627Z,15.91
2016-05-17T12:52:53.004Z,15.9
2016-05-17T12:53:52.866Z,15.91
2016-05-17T12:54:52.885Z,15.91
2016-05-17T12:55:52.966Z,15.92
2016-05-17T12:56:53.172Z,15.86